createdAt,value
2022-10-25T00:01:26.265Z,13.13
2022-10-25T00:03:30.682Z,13.07
2022-10-25T00:05:33.725Z,13.04
2022-10-25T00:07:36.741Z,13.02
2022-10-25T00:09:39.678Z,13.02
2022-10-25T00:11:43.334Z,13.02
2022-10-25T00:13:46.354Z,13.02
2022-10-25T00:15:49.588Z,13.03
2022-10-25T00:17:52.871Z,13.01
2022-10-25T00:19:57.203Z,12.99
2022-10-25T00:22:00.547Z,13.00
2022-10-25T00:24:04.787Z,12.98
2022-10-25T00:26:09.279Z,12.95
2022-10-25T00:28:12.489Z,12.88
2022-10-25T00:30:16.045Z,12.84
2022-10-25T00:32:19.049Z,12.77
2022-10-25T00:34:22.106Z,12.74
2022-10-25T00:36:27.784Z,12.70
2022-10-25T00:38:31.591Z,12.67
2022-10-25T00:40:35.138Z,12.64
2022-10-25T00:42:38.171Z,12.63
2022-10-25T00:44:53.540Z,12.61
2022-10-25T00:46:56.738Z,12.57
2022-10-25T00:49:03.540Z,12.52
2022-10-25T00:51:07.076Z,12.52
2022-10-25T00:53:15.174Z,12.47
2022-10-25T00:55:20.429Z,12.45
2022-10-25T00:57:27.408Z,12.44
2022-10-25T00:59:30.857Z,12.38
2022-10-25T01:01:34.113Z,12.37
2022-10-25T01:03:38.481Z,12.37
2022-10-25T01:05:41.772Z,12.35
2022-10-25T01:07:45.750Z,12.36
2022-10-25T01:09:51.210Z,12.37
2022-10-25T01:11:54.461Z,12.36
2022-10-25T01:13:57.754Z,12.37
2022-10-25T01:16:06.989Z,12.34
2022-10-25T01:18:15.595Z,12.32
2022-10-25T01:20:48.755Z,12.29
2022-10-25T01:22:55.546Z,12.25
2022-10-25T01:25:25.396Z,12.24
2022-10-25T01:27:47.149Z,12.23
2022-10-25T01:30:14.592Z,12.22
2022-10-25T01:32:22.401Z,12.22
2022-10-25T01:34:28.002Z,12.21
2022-10-25T01:36:38.138Z,12.20
2022-10-25T01:38:45.901Z,12.18
2022-10-25T01:40:54.159Z,12.17
2022-10-25T01:43:02.264Z,12.17
2022-10-25T01:45:09.915Z,12.13
2022-10-25T01:47:15.122Z,12.11
2022-10-25T01:49:24.998Z,12.04
2022-10-25T01:51:29.020Z,12.01
2022-10-25T01:53:32.027Z,12.00
2022-10-25T01:55:41.393Z,11.97
2022-10-25T01:57:59.684Z,11.97
2022-10-25T02:00:09.299Z,11.96
2022-10-25T02:02:23.669Z,11.93
2022-10-25T02:04:34.920Z,11.94
2022-10-25T02:06:44.093Z,11.91
2022-10-25T02:08:49.634Z,11.90
2022-10-25T02:10:57.066Z,11.93
2022-10-25T02:13:03.953Z,11.95
2022-10-25T02:15:11.315Z,11.95
2022-10-25T02:17:18.781Z,11.95
2022-10-25T02:19:25.132Z,11.91
2022-10-25T02:21:32.024Z,11.89
2022-10-25T02:23:35.923Z,11.92
2022-10-25T02:25:41.919Z,11.91
2022-10-25T02:27:46.021Z,11.91
2022-10-25T02:29:49.685Z,11.91
2022-10-25T02:31:52.831Z,11.87
2022-10-25T02:33:56.106Z,11.84
2022-10-25T02:36:09.818Z,11.84
2022-10-25T02:38:14.102Z,11.84
2022-10-25T02:40:17.303Z,11.84
2022-10-25T02:46:15.515Z,11.80
2022-10-25T02:48:18.593Z,11.77
2022-10-25T02:50:21.557Z,11.77
2022-10-25T02:52:24.568Z,11.75
2022-10-25T02:54:28.977Z,11.72
2022-10-25T02:56:32.022Z,11.72
2022-10-25T02:58:38.080Z,11.70
2022-10-25T03:00:41.267Z,11.69
2022-10-25T03:02:44.634Z,11.67
2022-10-25T03:04:47.979Z,11.66
2022-10-25T03:06:50.982Z,11.66
2022-10-25T03:08:54.023Z,11.65
2022-10-25T03:10:58.532Z,11.63
2022-10-25T03:13:01.624Z,11.60
2022-10-25T03:15:05.027Z,11.62
2022-10-25T03:17:08.151Z,11.65
2022-10-25T03:19:11.191Z,11.60
2022-10-25T03:21:14.167Z,11.60
2022-10-25T03:23:17.779Z,11.63
2022-10-25T03:25:20.858Z,11.63
2022-10-25T03:27:25.245Z,11.64
2022-10-25T03:29:28.423Z,11.66
2022-10-25T03:31:31.414Z,11.66
2022-10-25T03:33:34.404Z,11.65
2022-10-25T03:35:37.592Z,11.64
2022-10-25T03:37:40.605Z,11.63
2022-10-25T03:39:43.571Z,11.63
2022-10-25T03:41:46.508Z,11.62
2022-10-25T03:43:50.885Z,11.58
2022-10-25T03:45:53.851Z,11.60
2022-10-25T03:47:56.869Z,11.57
2022-10-25T03:49:59.851Z,11.54
2022-10-25T03:52:05.084Z,11.53
2022-10-25T03:54:08.188Z,11.51
2022-10-25T03:56:11.214Z,11.51
2022-10-25T03:58:14.242Z,11.48
2022-10-25T04:00:18.875Z,11.48
2022-10-25T04:02:21.915Z,11.48
2022-10-25T04:04:24.943Z,11.48
2022-10-25T04:06:27.906Z,11.46
2022-10-25T04:08:30.917Z,11.47
2022-10-25T04:10:34.011Z,11.44
2022-10-25T04:12:37.037Z,11.42
2022-10-25T04:14:40.102Z,11.41
2022-10-25T04:16:44.493Z,11.40
2022-10-25T04:18:47.709Z,11.36
2022-10-25T04:20:50.659Z,11.33
2022-10-25T04:22:57.225Z,11.34
2022-10-25T04:25:00.236Z,11.33
2022-10-25T04:27:03.350Z,11.29
2022-10-25T04:29:13.538Z,11.28
2022-10-25T04:31:16.870Z,11.25
2022-10-25T04:33:21.710Z,11.25
2022-10-25T04:35:27.602Z,11.25
2022-10-25T04:37:30.693Z,11.22
2022-10-25T04:39:33.642Z,11.19
2022-10-25T04:41:36.670Z,11.19
2022-10-25T04:43:39.703Z,11.18
2022-10-25T04:45:42.749Z,11.19
2022-10-25T04:47:45.751Z,11.17
2022-10-25T04:49:50.082Z,11.17
2022-10-25T04:51:52.974Z,11.15
2022-10-25T04:53:56.194Z,11.13
2022-10-25T04:55:59.681Z,11.10
2022-10-25T04:58:02.628Z,11.12
2022-10-25T05:00:06.354Z,11.11
2022-10-25T05:02:09.356Z,11.10
2022-10-25T05:04:12.343Z,11.08
2022-10-25T05:06:19.083Z,11.05
2022-10-25T05:08:22.105Z,11.05
2022-10-25T05:10:25.205Z,11.02
2022-10-25T05:12:28.224Z,11.00
2022-10-25T05:14:31.215Z,11.01
2022-10-25T05:16:35.185Z,11.00
2022-10-25T05:18:38.193Z,10.97
2022-10-25T05:20:41.244Z,10.95
2022-10-25T05:22:46.017Z,10.93
2022-10-25T05:24:49.175Z,10.92
2022-10-25T05:26:52.175Z,10.93
2022-10-25T05:28:56.893Z,10.90
2022-10-25T05:31:04.221Z,10.86
2022-10-25T05:33:07.236Z,10.84
2022-10-25T05:35:10.375Z,10.83
2022-10-25T05:37:13.326Z,10.84
2022-10-25T05:39:17.765Z,10.83
2022-10-25T05:41:20.767Z,10.83
2022-10-25T05:43:23.958Z,10.82
2022-10-25T05:45:27.005Z,10.79
2022-10-25T05:47:30.041Z,10.76
2022-10-25T05:49:34.172Z,10.76
2022-10-25T05:51:37.683Z,10.75
2022-10-25T05:53:44.467Z,10.76
2022-10-25T05:55:48.789Z,10.75
2022-10-25T05:57:52.680Z,10.76
2022-10-25T05:59:55.892Z,10.74
2022-10-25T06:01:59.018Z,10.73
2022-10-25T06:04:02.080Z,10.72
2022-10-25T06:06:06.919Z,10.71
2022-10-25T06:08:09.916Z,10.72
2022-10-25T06:10:12.851Z,10.75
2022-10-25T06:12:17.197Z,10.75
2022-10-25T06:14:20.171Z,10.78
2022-10-25T06:16:23.576Z,10.80
2022-10-25T06:18:26.542Z,10.83
2022-10-25T06:20:29.671Z,10.83
2022-10-25T06:22:32.772Z,10.84
2022-10-25T06:24:35.855Z,10.83
2022-10-25T06:26:38.921Z,10.84
2022-10-25T06:28:43.623Z,10.85
2022-10-25T06:30:46.542Z,10.87
2022-10-25T06:32:49.847Z,10.92
2022-10-25T06:34:52.993Z,10.94
2022-10-25T06:36:55.916Z,10.99
2022-10-25T06:39:05.269Z,11.01
2022-10-25T06:41:13.723Z,11.08
2022-10-25T06:43:16.696Z,11.12
2022-10-25T06:45:21.023Z,11.15
2022-10-25T06:47:24.025Z,11.17
2022-10-25T06:49:30.580Z,11.23
2022-10-25T06:51:34.445Z,11.26
2022-10-25T06:53:37.872Z,11.30
2022-10-25T06:55:42.369Z,11.35
2022-10-25T06:57:45.437Z,11.37
2022-10-25T06:59:48.537Z,11.41
2022-10-25T07:01:53.456Z,11.53
2022-10-25T07:03:56.715Z,11.74
2022-10-25T07:06:00.650Z,11.95
2022-10-25T07:08:03.743Z,11.99
2022-10-25T07:10:07.367Z,11.95
2022-10-25T07:12:12.721Z,11.93
2022-10-25T07:14:16.081Z,11.95
2022-10-25T07:16:20.875Z,12.01
2022-10-25T07:18:25.367Z,12.20
2022-10-25T07:20:30.955Z,12.29
2022-10-25T07:22:34.143Z,12.57
2022-10-25T07:24:37.141Z,12.70
2022-10-25T07:26:41.787Z,12.91
2022-10-25T07:28:46.318Z,13.14
2022-10-25T07:30:49.550Z,13.30
2022-10-25T07:32:52.618Z,13.53
2022-10-25T07:37:00.983Z,13.86
2022-10-25T07:39:04.281Z,14.03
2022-10-25T07:41:07.778Z,14.15
2022-10-25T07:43:11.162Z,14.21
2022-10-25T07:45:16.231Z,14.34
2022-10-25T07:47:21.846Z,14.25
2022-10-25T07:49:24.974Z,14.08
2022-10-25T07:51:29.579Z,14.15
2022-10-25T07:53:32.618Z,14.21
2022-10-25T07:55:35.642Z,14.49
2022-10-25T07:57:38.797Z,14.68
2022-10-25T07:59:41.755Z,14.61
2022-10-25T08:01:44.813Z,14.73
2022-10-25T08:03:47.952Z,15.00
2022-10-25T08:05:50.957Z,15.08
2022-10-25T08:07:55.256Z,14.98
2022-10-25T08:09:58.262Z,15.16
2022-10-25T08:12:01.239Z,15.38
2022-10-25T08:14:04.276Z,15.53
2022-10-25T08:16:11.240Z,15.75
2022-10-25T08:18:14.231Z,16.00
2022-10-25T08:20:17.363Z,16.16
2022-10-25T08:22:20.406Z,16.22
2022-10-25T08:24:24.814Z,16.27
2022-10-25T08:26:30.145Z,16.32
2022-10-25T08:28:35.298Z,16.38
2022-10-25T08:30:38.278Z,16.43
2022-10-25T08:32:41.320Z,16.53
2022-10-25T08:34:44.365Z,16.60
2022-10-25T08:36:49.674Z,16.70
2022-10-25T08:38:52.689Z,16.77
2022-10-25T08:41:03.261Z,16.84
2022-10-25T08:43:11.175Z,16.92
2022-10-25T08:45:19.885Z,17.00
2022-10-25T08:47:27.110Z,17.06
2022-10-25T08:49:34.647Z,17.12
2022-10-25T08:51:39.842Z,17.15
2022-10-25T08:53:47.813Z,17.21
2022-10-25T08:56:15.264Z,17.30
2022-10-25T08:58:18.698Z,17.43
2022-10-25T09:00:24.204Z,17.49
2022-10-25T09:02:34.653Z,17.58
2022-10-25T09:04:37.823Z,17.66
2022-10-25T09:06:43.275Z,17.77
2022-10-25T09:08:59.622Z,17.88
2022-10-25T09:11:07.933Z,17.95
2022-10-25T09:13:19.286Z,18.04
2022-10-25T09:15:33.306Z,18.06
2022-10-25T09:17:43.039Z,18.08
2022-10-25T09:19:57.858Z,18.06
2022-10-25T09:22:02.290Z,18.14
2022-10-25T09:24:11.712Z,18.19
2022-10-25T09:26:19.265Z,18.23
2022-10-25T09:28:26.777Z,18.32
2022-10-25T09:30:31.745Z,18.39
2022-10-25T09:32:38.791Z,18.42
2022-10-25T09:34:41.912Z,18.51
2022-10-25T09:36:47.012Z,18.51
2022-10-25T09:38:53.219Z,18.53
2022-10-25T09:40:58.925Z,18.49
2022-10-25T09:45:24.142Z,18.43
2022-10-25T09:47:41.453Z,18.50
2022-10-25T09:49:52.097Z,18.51
2022-10-25T09:52:00.703Z,18.56
2022-10-25T09:54:11.941Z,18.60
2022-10-25T09:56:17.201Z,18.66
2022-10-25T09:58:22.165Z,18.69
2022-10-25T10:00:26.849Z,18.71
2022-10-25T10:02:29.876Z,18.70
2022-10-25T10:04:36.273Z,18.55
2022-10-25T10:06:40.920Z,18.55
2022-10-25T10:08:49.080Z,18.62
2022-10-25T10:10:57.398Z,18.59
2022-10-25T10:13:05.020Z,18.62
2022-10-25T10:15:14.145Z,18.61
2022-10-25T10:17:21.291Z,18.70
2022-10-25T10:19:29.936Z,18.76
2022-10-25T10:21:42.960Z,18.81
2022-10-25T10:23:50.703Z,18.83
2022-10-25T10:25:53.878Z,18.87
2022-10-25T10:27:58.186Z,18.85
2022-10-25T10:30:03.240Z,18.77
2022-10-25T10:32:10.180Z,18.74
2022-10-25T10:34:28.532Z,18.76
2022-10-25T10:36:33.584Z,18.74
2022-10-25T10:38:39.361Z,18.70
2022-10-25T10:40:44.001Z,18.67
2022-10-25T10:42:49.886Z,18.66
2022-10-25T10:45:16.614Z,18.64
2022-10-25T10:47:22.538Z,18.62
2022-10-25T10:49:36.143Z,18.62
2022-10-25T10:51:45.031Z,18.66
2022-10-25T10:53:48.456Z,18.64
2022-10-25T10:55:52.936Z,18.72
2022-10-25T10:57:57.377Z,18.73
2022-10-25T11:00:01.488Z,18.71
2022-10-25T11:02:24.117Z,18.61
2022-10-25T11:04:28.704Z,18.55
2022-10-25T11:06:33.254Z,18.52
2022-10-25T11:08:36.240Z,18.60
2022-10-25T11:10:40.224Z,18.65
2022-10-25T11:12:43.738Z,18.66
2022-10-25T11:14:46.840Z,18.61
2022-10-25T11:16:54.533Z,18.56
2022-10-25T11:19:10.134Z,18.60
2022-10-25T11:21:22.504Z,18.66
2022-10-25T11:23:28.914Z,18.70
2022-10-25T11:25:35.299Z,18.67
2022-10-25T11:27:48.156Z,18.64
2022-10-25T11:30:01.121Z,18.62
2022-10-25T11:32:18.736Z,18.60
2022-10-25T11:34:27.124Z,18.57
2022-10-25T11:36:52.676Z,18.59
2022-10-25T11:39:04.445Z,18.63
2022-10-25T11:41:17.369Z,18.75
2022-10-25T11:43:35.357Z,18.92
2022-10-25T11:45:42.610Z,18.97
2022-10-25T11:47:52.780Z,18.91
2022-10-25T11:50:02.351Z,18.79
2022-10-25T11:52:28.545Z,18.70
2022-10-25T11:54:36.786Z,18.72
2022-10-25T11:56:45.951Z,18.70
2022-10-25T11:58:55.259Z,18.74
2022-10-25T12:01:04.204Z,18.80
2022-10-25T12:03:20.533Z,18.83
2022-10-25T12:05:30.749Z,18.82
2022-10-25T12:07:38.606Z,18.79
2022-10-25T12:09:47.767Z,18.77
2022-10-25T12:12:01.675Z,18.76
2022-10-25T12:14:07.307Z,18.77
2022-10-25T12:16:12.323Z,18.78
2022-10-25T12:18:20.582Z,18.71
2022-10-25T12:20:27.892Z,18.64
2022-10-25T12:22:38.216Z,18.63
2022-10-25T12:24:46.466Z,18.58
2022-10-25T12:26:50.987Z,18.58
2022-10-25T12:28:54.123Z,18.58
2022-10-25T12:31:01.004Z,18.59
2022-10-25T12:33:12.205Z,18.56
2022-10-25T12:35:21.516Z,18.54
2022-10-25T12:37:29.849Z,18.53
2022-10-25T12:39:40.639Z,18.55
2022-10-25T12:41:45.080Z,18.62
2022-10-25T12:44:00.226Z,18.67
2022-10-25T12:46:37.003Z,18.67
2022-10-25T12:49:03.170Z,18.67
2022-10-25T12:51:19.122Z,18.75
2022-10-25T12:53:46.701Z,18.68
2022-10-25T12:55:57.047Z,18.59
2022-10-25T12:58:09.867Z,18.54
2022-10-25T13:00:14.842Z,18.55
2022-10-25T13:02:55.458Z,18.53
2022-10-25T13:05:24.236Z,18.57
2022-10-25T13:07:27.764Z,18.64
2022-10-25T13:09:33.070Z,18.67
2022-10-25T13:11:39.586Z,18.71
2022-10-25T13:13:48.790Z,18.71
2022-10-25T13:15:52.824Z,18.72
2022-10-25T13:18:05.726Z,18.74
2022-10-25T13:20:46.398Z,18.72
2022-10-25T13:22:52.396Z,18.65
2022-10-25T13:24:56.003Z,18.63
2022-10-25T13:27:22.125Z,18.59
2022-10-25T13:29:50.211Z,18.60
2022-10-25T13:31:59.880Z,18.58
2022-10-25T13:34:30.899Z,18.60
2022-10-25T13:36:47.491Z,18.67
2022-10-25T13:39:04.541Z,18.74
2022-10-25T13:41:13.482Z,18.79
2022-10-25T13:43:20.697Z,18.83
2022-10-25T13:45:33.393Z,18.79
2022-10-25T13:47:39.010Z,18.75
2022-10-25T13:49:43.824Z,18.76
2022-10-25T13:51:47.200Z,18.80
2022-10-25T13:53:52.680Z,18.85
2022-10-25T13:56:01.146Z,18.88
2022-10-25T13:58:57.423Z,18.92
2022-10-25T14:01:55.940Z,18.94
2022-10-25T14:04:08.712Z,18.98
2022-10-25T14:06:23.801Z,18.98
2022-10-25T14:08:28.940Z,18.95
2022-10-25T14:10:36.476Z,18.93
2022-10-25T14:12:41.089Z,18.92
2022-10-25T14:14:48.383Z,18.93
2022-10-25T14:17:10.450Z,18.96
2022-10-25T14:19:16.657Z,18.97
2022-10-25T14:21:20.552Z,18.98
2022-10-25T14:23:25.367Z,19.00
2022-10-25T14:25:34.301Z,18.98
2022-10-25T14:27:38.380Z,18.96
2022-10-25T14:29:41.362Z,18.96
2022-10-25T14:31:44.523Z,18.95
2022-10-25T14:33:53.636Z,18.95
2022-10-25T14:35:58.576Z,18.95
2022-10-25T14:38:01.972Z,18.96
2022-10-25T14:40:16.427Z,18.98
2022-10-25T14:42:19.545Z,19.01
2022-10-25T14:44:25.337Z,19.02
2022-10-25T14:46:30.269Z,19.02
2022-10-25T14:48:33.679Z,19.01
2022-10-25T14:50:39.915Z,19.00
2022-10-25T14:52:45.025Z,18.97
2022-10-25T14:54:54.750Z,18.92
2022-10-25T14:57:00.010Z,18.88
2022-10-25T14:59:04.238Z,18.84
2022-10-25T15:01:07.969Z,18.80
2022-10-25T15:03:12.662Z,18.79
2022-10-25T15:05:20.222Z,18.78
2022-10-25T15:07:29.094Z,18.79
2022-10-25T15:09:48.699Z,18.79
2022-10-25T15:12:06.828Z,18.80
2022-10-25T15:14:17.006Z,18.79
2022-10-25T15:16:32.341Z,18.79
2022-10-25T15:18:38.154Z,18.79
2022-10-25T15:20:41.576Z,18.77
2022-10-25T15:22:48.155Z,18.78
2022-10-25T15:24:51.440Z,18.75
2022-10-25T15:26:59.481Z,18.72
2022-10-25T15:29:02.952Z,18.70
2022-10-25T15:31:07.883Z,18.66
2022-10-25T15:33:14.638Z,18.65
2022-10-25T15:35:23.474Z,18.62
2022-10-25T15:37:27.789Z,18.57
2022-10-25T15:39:32.942Z,18.52
2022-10-25T15:41:36.553Z,18.46
2022-10-25T15:43:39.584Z,18.42
2022-10-25T15:45:42.897Z,18.39
2022-10-25T15:47:47.337Z,18.33
2022-10-25T15:49:52.676Z,18.29
2022-10-25T15:51:56.959Z,18.23
2022-10-25T15:54:00.220Z,18.15
2022-10-25T15:56:04.871Z,18.06
2022-10-25T15:58:09.898Z,18.01
2022-10-25T16:00:15.650Z,17.96
2022-10-25T16:02:22.026Z,17.90
2022-10-25T16:04:25.093Z,17.82
2022-10-25T16:06:28.069Z,17.75
2022-10-25T16:08:31.442Z,17.63
2022-10-25T16:10:34.825Z,17.59
2022-10-25T16:12:39.599Z,17.53
2022-10-25T16:14:42.700Z,17.48
2022-10-25T16:16:46.071Z,17.45
2022-10-25T16:18:49.094Z,17.40
2022-10-25T16:20:52.998Z,17.33
2022-10-25T16:22:56.783Z,17.27
2022-10-25T16:24:59.827Z,17.23
2022-10-25T16:27:02.975Z,17.20
2022-10-25T16:29:07.476Z,17.16
2022-10-25T16:31:10.430Z,17.13
2022-10-25T16:33:13.545Z,17.07
2022-10-25T16:35:18.787Z,17.03
2022-10-25T16:37:21.997Z,17.00
2022-10-25T16:39:25.052Z,16.93
2022-10-25T16:41:29.835Z,16.87
2022-10-25T16:43:33.820Z,16.80
2022-10-25T16:45:38.561Z,16.72
2022-10-25T16:47:41.685Z,16.70
2022-10-25T16:49:44.777Z,16.64
2022-10-25T16:51:48.782Z,16.61
2022-10-25T16:53:52.045Z,16.57
2022-10-25T16:55:56.105Z,16.50
2022-10-25T16:57:59.663Z,16.49
2022-10-25T17:00:02.763Z,16.43
2022-10-25T17:02:10.889Z,16.39
2022-10-25T17:04:14.498Z,16.32
2022-10-25T17:06:39.734Z,16.28
2022-10-25T17:08:40.922Z,16.23
2022-10-25T17:10:46.066Z,16.17
2022-10-25T17:12:50.665Z,16.09
2022-10-25T17:14:53.987Z,16.04
2022-10-25T17:17:02.232Z,16.01
2022-10-25T17:19:07.681Z,15.95
2022-10-25T17:21:12.745Z,15.90
2022-10-25T17:23:15.675Z,15.85
2022-10-25T17:25:18.694Z,15.80
2022-10-25T17:27:21.711Z,15.76
2022-10-25T17:29:24.738Z,15.71
2022-10-25T17:31:28.272Z,15.67
2022-10-25T17:33:32.726Z,15.63
2022-10-25T17:35:41.999Z,15.59
2022-10-25T17:37:47.130Z,15.54
2022-10-25T17:39:50.494Z,15.51
2022-10-25T17:41:53.503Z,15.47
2022-10-25T17:43:57.180Z,15.43
2022-10-25T17:46:01.244Z,15.40
2022-10-25T17:48:04.864Z,15.37
2022-10-25T17:50:08.405Z,15.33
2022-10-25T17:52:13.232Z,15.31
2022-10-25T17:54:16.968Z,15.27
2022-10-25T17:56:20.579Z,15.21
2022-10-25T17:58:24.050Z,15.17
2022-10-25T18:00:27.094Z,15.14
2022-10-25T18:02:30.232Z,15.10
2022-10-25T18:04:52.967Z,15.08
2022-10-25T18:06:56.524Z,15.04
2022-10-25T18:09:02.926Z,15.01
2022-10-25T18:11:09.746Z,14.99
2022-10-25T18:13:12.729Z,14.96
2022-10-25T18:15:15.971Z,14.92
2022-10-25T18:17:18.975Z,14.87
2022-10-25T18:19:22.709Z,14.82
2022-10-25T18:21:25.886Z,14.79
2022-10-25T18:23:28.885Z,14.76
2022-10-25T18:25:33.323Z,14.73
2022-10-25T18:27:36.393Z,14.72
2022-10-25T18:29:39.953Z,14.68
2022-10-25T18:31:42.967Z,14.65
2022-10-25T18:33:46.237Z,14.60
2022-10-25T18:35:49.320Z,14.58
2022-10-25T18:37:52.402Z,14.57
2022-10-25T18:39:55.529Z,14.56
2022-10-25T18:41:59.958Z,14.54
2022-10-25T18:44:03.482Z,14.52
2022-10-25T18:46:06.820Z,14.48
2022-10-25T18:48:09.847Z,14.48
2022-10-25T18:50:12.876Z,14.44
2022-10-25T18:52:15.964Z,14.42
2022-10-25T18:54:19.468Z,14.39
2022-10-25T18:56:23.791Z,14.35
2022-10-25T18:58:28.239Z,14.33
2022-10-25T19:00:31.489Z,14.31
2022-10-25T19:02:37.809Z,14.27
2022-10-25T19:04:44.452Z,14.24
2022-10-25T19:06:47.716Z,14.23
2022-10-25T19:08:50.769Z,14.19
2022-10-25T19:10:53.786Z,14.18
2022-10-25T19:12:56.767Z,14.17
2022-10-25T19:15:02.977Z,14.14
2022-10-25T19:17:06.069Z,14.12
2022-10-25T19:19:11.681Z,14.11
2022-10-25T19:21:17.090Z,14.10
2022-10-25T19:23:20.113Z,14.06
2022-10-25T19:25:24.025Z,14.04
2022-10-25T19:27:28.971Z,14.00
2022-10-25T19:29:33.290Z,13.96
2022-10-25T19:31:37.859Z,13.86
2022-10-25T19:33:41.207Z,13.80
2022-10-25T19:35:44.269Z,13.77
2022-10-25T19:37:48.030Z,13.72
2022-10-25T19:39:54.398Z,13.69
2022-10-25T19:42:00.281Z,13.68
2022-10-25T19:44:03.332Z,13.66
2022-10-25T19:46:07.880Z,13.66
2022-10-25T19:48:12.471Z,13.65
2022-10-25T19:50:15.520Z,13.64
2022-10-25T19:52:18.617Z,13.61
2022-10-25T19:54:22.743Z,13.60
2022-10-25T19:56:25.814Z,13.58
2022-10-25T19:58:29.496Z,13.57
2022-10-25T20:00:32.887Z,13.56
2022-10-25T20:02:36.205Z,13.54
2022-10-25T20:04:40.989Z,13.53
2022-10-25T20:06:44.232Z,13.52
2022-10-25T20:08:48.065Z,13.51
2022-10-25T20:10:52.121Z,13.51
2022-10-25T20:12:55.442Z,13.51
2022-10-25T20:14:58.765Z,13.49
2022-10-25T20:17:02.033Z,13.49
2022-10-25T20:19:05.439Z,13.48
2022-10-25T20:21:11.739Z,13.48
2022-10-25T20:23:14.925Z,13.47
2022-10-25T20:25:18.211Z,13.47
2022-10-25T20:27:21.277Z,13.47
2022-10-25T20:29:26.246Z,13.46
2022-10-25T20:31:33.072Z,13.47
2022-10-25T20:33:47.180Z,13.41
2022-10-25T20:36:06.875Z,13.45
2022-10-25T20:38:17.854Z,13.41
2022-10-25T20:40:26.143Z,13.39
2022-10-25T20:42:29.154Z,13.41
2022-10-25T20:44:32.191Z,13.40
2022-10-25T20:46:36.253Z,13.40
2022-10-25T20:48:39.280Z,13.40
2022-10-25T20:50:46.060Z,13.40
2022-10-25T20:53:09.206Z,13.39
2022-10-25T20:55:14.231Z,13.38
2022-10-25T20:57:17.238Z,13.38
2022-10-25T20:59:20.329Z,13.36
2022-10-25T21:01:23.440Z,13.34
2022-10-25T21:03:27.754Z,13.32
2022-10-25T21:05:31.509Z,13.30
2022-10-25T21:07:34.662Z,13.28
2022-10-25T21:09:37.708Z,13.28
2022-10-25T21:11:42.123Z,13.28
2022-10-25T21:13:45.232Z,13.27
2022-10-25T21:15:48.494Z,13.25
2022-10-25T21:17:51.683Z,13.23
2022-10-25T21:19:54.925Z,13.21
2022-10-25T21:21:58.134Z,13.21
2022-10-25T21:24:02.632Z,13.19
2022-10-25T21:26:07.675Z,13.18
2022-10-25T21:28:12.360Z,13.17
2022-10-25T21:30:15.797Z,13.16
2022-10-25T21:32:19.508Z,13.15
2022-10-25T21:34:22.534Z,13.14
2022-10-25T21:36:25.584Z,13.13
2022-10-25T21:38:28.533Z,13.09
2022-10-25T21:40:31.603Z,13.10
2022-10-25T21:42:34.868Z,13.08
2022-10-25T21:44:39.224Z,13.07
2022-10-25T21:46:42.632Z,13.05
2022-10-25T21:48:47.232Z,13.04
2022-10-25T21:50:55.042Z,13.03
2022-10-25T21:52:58.165Z,13.03
2022-10-25T21:55:01.363Z,13.01
2022-10-25T21:57:04.456Z,13.02
2022-10-25T21:59:07.728Z,12.99
2022-10-25T22:01:13.499Z,13.00
2022-10-25T22:03:16.788Z,12.97
2022-10-25T22:05:19.924Z,12.97
2022-10-25T22:07:23.391Z,12.96
2022-10-25T22:09:26.544Z,12.97
2022-10-25T22:11:31.967Z,12.97
2022-10-25T22:13:35.289Z,12.95
2022-10-25T22:15:38.306Z,12.96
2022-10-25T22:17:42.732Z,12.97
2022-10-25T22:19:45.690Z,12.96
2022-10-25T22:21:50.506Z,12.97
2022-10-25T22:23:53.666Z,12.98
2022-10-25T22:26:00.828Z,13.00
2022-10-25T22:28:03.860Z,13.01
2022-10-25T22:30:07.946Z,12.99
2022-10-25T22:32:10.892Z,12.97
2022-10-25T22:34:16.424Z,12.96
2022-10-25T22:36:21.595Z,12.95
2022-10-25T22:38:25.100Z,13.00
2022-10-25T22:40:28.124Z,13.00
2022-10-25T22:42:31.093Z,13.00
2022-10-25T22:44:34.067Z,13.01
2022-10-25T22:46:37.555Z,13.04
2022-10-25T22:48:42.220Z,13.07
2022-10-25T22:50:50.728Z,13.09
2022-10-25T22:52:53.802Z,13.09
2022-10-25T22:54:56.792Z,13.11
2022-10-25T22:56:59.819Z,13.15
2022-10-25T22:59:05.350Z,13.17
2022-10-25T23:01:10.403Z,13.19
2022-10-25T23:03:13.578Z,13.21
2022-10-25T23:05:16.732Z,13.20
2022-10-25T23:07:21.154Z,13.21
2022-10-25T23:09:24.222Z,13.23
2022-10-25T23:11:28.998Z,13.24
2022-10-25T23:13:32.959Z,13.25
2022-10-25T23:15:35.938Z,13.26
2022-10-25T23:17:39.011Z,13.25
2022-10-25T23:19:41.984Z,13.27
2022-10-25T23:21:45.090Z,13.24
2022-10-25T23:23:49.456Z,13.26
2022-10-25T23:25:52.965Z,13.27
2022-10-25T23:27:56.145Z,13.27
2022-10-25T23:29:59.137Z,13.29
2022-10-25T23:32:02.190Z,13.29
2022-10-25T23:34:05.167Z,13.30
2022-10-25T23:36:10.167Z,13.31
2022-10-25T23:38:13.677Z,13.32
2022-10-25T23:40:18.049Z,13.32
2022-10-25T23:42:21.155Z,13.31
2022-10-25T23:44:24.595Z,13.31
2022-10-25T23:46:27.628Z,13.32
2022-10-25T23:48:30.862Z,13.32
2022-10-25T23:50:33.972Z,13.32
2022-10-25T23:52:37.084Z,13.32
2022-10-25T23:54:40.041Z,13.33
2022-10-25T23:56:44.347Z,13.34
2022-10-25T23:58:50.365Z,13.36
